sensor_id;sensor_type;location;lat;lon;timestamp;temperature;humidity
2611;DHT22;5612;51.134;17.058;2023-12-07T00:02:04;1.30;99.90
2611;DHT22;5612;51.134;17.058;2023-12-07T00:04:33;1.30;88.10
2611;DHT22;5612;51.134;17.058;2023-12-07T00:07:04;1.10;55.30
2611;DHT22;5612;51.134;17.058;2023-12-07T00:09:34;1.20;99.90
2611;DHT22;5612;51.134;17.058;2023-12-07T00:12:03;1.20;99.90
2611;DHT22;5612;51.134;17.058;2023-12-07T00:14:32;1.10;99.90
2611;DHT22;5612;51.134;17.058;2023-12-07T00:17:01;0.90;99.90
2611;DHT22;5612;51.134;17.058;2023-12-07T00:19:30;0.90;1.00
2611;DHT22;5612;51.134;17.058;2023-12-07T00:21:59;1.00;99.90
2611;DHT22;5612;51.134;17.058;2023-12-07T00:24:29;0.90;99.90
2611;DHT22;5612;51.134;17.058;2023-12-07T00:26:59;1.00;99.90
2611;DHT22;5612;51.134;17.058;2023-12-07T00:29:28;0.90;99.90
2611;DHT22;5612;51.134;17.058;2023-12-07T00:31:57;0.80;1.00
2611;DHT22;5612;51.134;17.058;2023-12-07T00:34:26;0.80;1.00
2611;DHT22;5612;51.134;17.058;2023-12-07T00:36:55;0.80;1.00
2611;DHT22;5612;51.134;17.058;2023-12-07T00:39:24;0.80;15.60
2611;DHT22;5612;51.134;17.058;2023-12-07T00:41:55;0.90;1.00
2611;DHT22;5612;51.134;17.058;2023-12-07T00:44:23;0.80;1.00
2611;DHT22;5612;51.134;17.058;2023-12-07T00:46:53;0.80;9.70
2611;DHT22;5612;51.134;17.058;2023-12-07T00:49:22;0.70;1.00
2611;DHT22;5612;51.134;17.058;2023-12-07T00:51:51;0.70;99.90
2611;DHT22;5612;51.134;17.058;2023-12-07T00:54:20;0.70;99.90
2611;DHT22;5612;51.134;17.058;2023-12-07T00:56:49;0.90;94.20
2611;DHT22;5612;51.134;17.058;2023-12-07T00:59:20;1.20;99.90
2611;DHT22;5612;51.134;17.058;2023-12-07T01:01:49;1.00;99.90
2611;DHT22;5612;51.134;17.058;2023-12-07T01:04:18;1.10;99.90
2611;DHT22;5612;51.134;17.058;2023-12-07T01:06:47;1.10;99.90
2611;DHT22;5612;51.134;17.058;2023-12-07T01:09:16;1.10;94.10
2611;DHT22;5612;51.134;17.058;2023-12-07T01:11:45;0.90;99.90
2611;DHT22;5612;51.134;17.058;2023-12-07T01:14:14;0.90;1.00
2611;DHT22;5612;51.134;17.058;2023-12-07T01:16:45;1.10;99.90
2611;DHT22;5612;51.134;17.058;2023-12-07T01:19:14;1.30;99.90
2611;DHT22;5612;51.134;17.058;2023-12-07T01:21:43;1.30;6.80
2611;DHT22;5612;51.134;17.058;2023-12-07T01:24:12;1.10;90.40
2611;DHT22;5612;51.134;17.058;2023-12-07T01:26:43;1.30;99.90
2611;DHT22;5612;51.134;17.058;2023-12-07T01:29:12;1.30;1.00
2611;DHT22;5612;51.134;17.058;2023-12-07T01:31:41;1.20;1.00
2611;DHT22;5612;51.134;17.058;2023-12-07T01:34:12;1.10;44.00
2611;DHT22;5612;51.134;17.058;2023-12-07T01:36:41;1.10;99.90
2611;DHT22;5612;51.134;17.058;2023-12-07T01:39:09;1.20;99.90
2611;DHT22;5612;51.134;17.058;2023-12-07T01:41:40;1.20;70.80
2611;DHT22;5612;51.134;17.058;2023-12-07T01:44:09;1.10;99.90
2611;DHT22;5612;51.134;17.058;2023-12-07T01:46:38;1.10;99.90
2611;DHT22;5612;51.134;17.058;2023-12-07T01:49:07;1.30;99.90
2611;DHT22;5612;51.134;17.058;2023-12-07T01:51:38;1.30;77.80
2611;DHT22;5612;51.134;17.058;2023-12-07T01:54:07;1.40;1.00
2611;DHT22;5612;51.134;17.058;2023-12-07T01:56:36;1.50;1.00
2611;DHT22;5612;51.134;17.058;2023-12-07T01:59:06;1.60;1.00
2611;DHT22;5612;51.134;17.058;2023-12-07T02:01:35;1.60;99.90
2611;DHT22;5612;51.134;17.058;2023-12-07T02:04:04;1.60;99.90
2611;DHT22;5612;51.134;17.058;2023-12-07T02:06:33;1.60;99.90
2611;DHT22;5612;51.134;17.058;2023-12-07T02:09:04;1.60;99.90
2611;DHT22;5612;51.134;17.058;2023-12-07T02:11:33;1.70;99.90
2611;DHT22;5612;51.134;17.058;2023-12-07T02:14:02;1.60;99.90
2611;DHT22;5612;51.134;17.058;2023-12-07T02:16:35;1.70;99.90
2611;DHT22;5612;51.134;17.058;2023-12-07T02:19:19;1.70;99.90
2611;DHT22;5612;51.134;17.058;2023-12-07T02:21:58;1.70;99.90
2611;DHT22;5612;51.134;17.058;2023-12-07T02:24:33;1.70;99.90
2611;DHT22;5612;51.134;17.058;2023-12-07T02:27:04;1.60;99.90
2611;DHT22;5612;51.134;17.058;2023-12-07T02:29:33;1.50;99.90
2611;DHT22;5612;51.134;17.058;2023-12-07T02:32:02;1.50;99.90
2611;DHT22;5612;51.134;17.058;2023-12-07T02:34:31;1.60;99.90
2611;DHT22;5612;51.134;17.058;2023-12-07T02:37:02;1.70;99.90
2611;DHT22;5612;51.134;17.058;2023-12-07T02:39:31;1.60;99.90
2611;DHT22;5612;51.134;17.058;2023-12-07T02:42:01;1.50;99.90
2611;DHT22;5612;51.134;17.058;2023-12-07T02:44:31;1.60;99.90
2611;DHT22;5612;51.134;17.058;2023-12-07T02:47:00;1.70;99.90
2611;DHT22;5612;51.134;17.058;2023-12-07T02:49:29;1.70;63.80
2611;DHT22;5612;51.134;17.058;2023-12-07T02:51:58;1.70;99.90
2611;DHT22;5612;51.134;17.058;2023-12-07T02:54:27;1.50;99.90
2611;DHT22;5612;51.134;17.058;2023-12-07T02:56:56;1.50;99.90
2611;DHT22;5612;51.134;17.058;2023-12-07T02:59:25;1.40;99.90
2611;DHT22;5612;51.134;17.058;2023-12-07T03:01:55;1.40;1.00
2611;DHT22;5612;51.134;17.058;2023-12-07T03:04:24;1.50;99.90
2611;DHT22;5612;51.134;17.058;2023-12-07T03:06:53;1.50;99.90
2611;DHT22;5612;51.134;17.058;2023-12-07T03:09:22;1.70;99.90
2611;DHT22;5612;51.134;17.058;2023-12-07T03:11:51;1.80;99.90
2611;DHT22;5612;51.134;17.058;2023-12-07T03:14:20;1.80;99.90
2611;DHT22;5612;51.134;17.058;2023-12-07T03:16:49;1.90;99.90
2611;DHT22;5612;51.134;17.058;2023-12-07T03:19:19;1.90;99.90
2611;DHT22;5612;51.134;17.058;2023-12-07T03:21:48;1.90;79.60
2611;DHT22;5612;51.134;17.058;2023-12-07T03:24:17;1.90;70.70
2611;DHT22;5612;51.134;17.058;2023-12-07T03:26:46;1.90;48.20
2611;DHT22;5612;51.134;17.058;2023-12-07T03:29:18;1.90;35.30
2611;DHT22;5612;51.134;17.058;2023-12-07T03:31:47;1.90;58.40
2611;DHT22;5612;51.134;17.058;2023-12-07T03:34:16;2.00;44.80
2611;DHT22;5612;51.134;17.058;2023-12-07T03:36:47;1.90;35.30
2611;DHT22;5612;51.134;17.058;2023-12-07T03:39:17;1.90;14.90
2611;DHT22;5612;51.134;17.058;2023-12-07T03:41:49;1.90;32.00
2611;DHT22;5612;51.134;17.058;2023-12-07T03:44:18;1.80;35.20
2611;DHT22;5612;51.134;17.058;2023-12-07T03:46:47;1.80;99.90
2611;DHT22;5612;51.134;17.058;2023-12-07T03:49:15;1.80;99.90
2611;DHT22;5612;51.134;17.058;2023-12-07T03:51:46;1.90;99.90
2611;DHT22;5612;51.134;17.058;2023-12-07T03:54:15;1.80;88.10
2611;DHT22;5612;51.134;17.058;2023-12-07T03:56:44;1.70;99.90
2611;DHT22;5612;51.134;17.058;2023-12-07T03:59:13;1.70;99.90
2611;DHT22;5612;51.134;17.058;2023-12-07T04:01:42;1.70;99.90
2611;DHT22;5612;51.134;17.058;2023-12-07T04:04:11;1.80;99.90
2611;DHT22;5612;51.134;17.058;2023-12-07T04:06:40;1.90;99.90
2611;DHT22;5612;51.134;17.058;2023-12-07T04:09:11;1.80;99.90
2611;DHT22;5612;51.134;17.058;2023-12-07T04:11:40;1.80;99.90
2611;DHT22;5612;51.134;17.058;2023-12-07T04:14:09;1.70;99.90
2611;DHT22;5612;51.134;17.058;2023-12-07T04:16:38;1.80;99.90
2611;DHT22;5612;51.134;17.058;2023-12-07T04:19:07;1.60;99.90
2611;DHT22;5612;51.134;17.058;2023-12-07T04:21:35;1.70;99.90
2611;DHT22;5612;51.134;17.058;2023-12-07T04:24:05;1.70;99.90
2611;DHT22;5612;51.134;17.058;2023-12-07T04:26:36;1.80;99.90
2611;DHT22;5612;51.134;17.058;2023-12-07T04:29:04;1.70;99.90
2611;DHT22;5612;51.134;17.058;2023-12-07T04:31:33;1.70;99.90
2611;DHT22;5612;51.134;17.058;2023-12-07T04:34:03;1.70;99.90
2611;DHT22;5612;51.134;17.058;2023-12-07T04:36:33;1.80;99.90
2611;DHT22;5612;51.134;17.058;2023-12-07T04:39:01;1.80;99.90
2611;DHT22;5612;51.134;17.058;2023-12-07T04:41:30;1.90;99.90
2611;DHT22;5612;51.134;17.058;2023-12-07T04:44:01;1.90;99.90
2611;DHT22;5612;51.134;17.058;2023-12-07T04:46:30;2.00;99.90
2611;DHT22;5612;51.134;17.058;2023-12-07T04:48:59;1.90;99.90
2611;DHT22;5612;51.134;17.058;2023-12-07T04:51:29;1.90;99.90
2611;DHT22;5612;51.134;17.058;2023-12-07T04:53:58;1.90;99.90
2611;DHT22;5612;51.134;17.058;2023-12-07T04:56:42;1.90;99.90
2611;DHT22;5612;51.134;17.058;2023-12-07T04:59:12;1.90;35.10
2611;DHT22;5612;51.134;17.058;2023-12-07T05:01:41;1.90;13.50
2611;DHT22;5612;51.134;17.058;2023-12-07T05:04:10;1.90;35.40
2611;DHT22;5612;51.134;17.058;2023-12-07T05:06:39;1.90;17.40
2611;DHT22;5612;51.134;17.058;2023-12-07T05:09:08;1.80;97.60
2611;DHT22;5612;51.134;17.058;2023-12-07T05:11:38;1.70;99.90
2611;DHT22;5612;51.134;17.058;2023-12-07T05:14:07;1.80;99.90
2611;DHT22;5612;51.134;17.058;2023-12-07T05:16:38;1.90;99.90
2611;DHT22;5612;51.134;17.058;2023-12-07T05:19:07;1.90;99.90
2611;DHT22;5612;51.134;17.058;2023-12-07T05:21:38;2.00;73.30
2611;DHT22;5612;51.134;17.058;2023-12-07T05:24:07;2.00;65.90
2611;DHT22;5612;51.134;17.058;2023-12-07T05:26:35;2.00;35.40
2611;DHT22;5612;51.134;17.058;2023-12-07T05:29:04;2.00;20.90
2611;DHT22;5612;51.134;17.058;2023-12-07T05:31:33;2.00;1.00
2611;DHT22;5612;51.134;17.058;2023-12-07T05:34:04;1.90;61.80
2611;DHT22;5612;51.134;17.058;2023-12-07T05:36:33;1.90;69.60
2611;DHT22;5612;51.134;17.058;2023-12-07T05:39:02;1.90;95.20
2611;DHT22;5612;51.134;17.058;2023-12-07T05:41:34;1.90;99.90
2611;DHT22;5612;51.134;17.058;2023-12-07T05:44:03;1.70;99.90
2611;DHT22;5612;51.134;17.058;2023-12-07T05:46:33;1.70;99.90
2611;DHT22;5612;51.134;17.058;2023-12-07T05:49:05;1.80;99.90
2611;DHT22;5612;51.134;17.058;2023-12-07T05:51:34;1.80;99.90
2611;DHT22;5612;51.134;17.058;2023-12-07T05:54:03;1.80;99.90
2611;DHT22;5612;51.134;17.058;2023-12-07T05:56:33;1.70;99.90
2611;DHT22;5612;51.134;17.058;2023-12-07T05:59:02;1.80;99.90
2611;DHT22;5612;51.134;17.058;2023-12-07T06:01:31;1.90;99.90
2611;DHT22;5612;51.134;17.058;2023-12-07T06:04:00;2.00;99.90
2611;DHT22;5612;51.134;17.058;2023-12-07T06:06:30;1.80;99.90
2611;DHT22;5612;51.134;17.058;2023-12-07T06:08:59;1.90;99.90
2611;DHT22;5612;51.134;17.058;2023-12-07T06:11:28;2.00;99.90
2611;DHT22;5612;51.134;17.058;2023-12-07T06:13:58;2.00;99.90
2611;DHT22;5612;51.134;17.058;2023-12-07T06:16:27;2.10;99.90
2611;DHT22;5612;51.134;17.058;2023-12-07T06:18:56;2.10;99.90
2611;DHT22;5612;51.134;17.058;2023-12-07T06:21:25;2.10;99.90
2611;DHT22;5612;51.134;17.058;2023-12-07T06:23:58;2.20;99.90
2611;DHT22;5612;51.134;17.058;2023-12-07T06:26:27;2.20;99.90
2611;DHT22;5612;51.134;17.058;2023-12-07T06:28:56;2.20;99.90
2611;DHT22;5612;51.134;17.058;2023-12-07T06:31:26;2.10;99.90
2611;DHT22;5612;51.134;17.058;2023-12-07T06:33:55;2.00;99.90
2611;DHT22;5612;51.134;17.058;2023-12-07T06:36:24;1.90;99.90
2611;DHT22;5612;51.134;17.058;2023-12-07T06:38:54;1.90;1.00
2611;DHT22;5612;51.134;17.058;2023-12-07T06:41:24;1.80;1.00
2611;DHT22;5612;51.134;17.058;2023-12-07T06:43:54;1.70;99.90
2611;DHT22;5612;51.134;17.058;2023-12-07T06:46:24;1.70;99.90
2611;DHT22;5612;51.134;17.058;2023-12-07T06:48:53;1.90;99.90
2611;DHT22;5612;51.134;17.058;2023-12-07T06:51:22;2.00;10.60
2611;DHT22;5612;51.134;17.058;2023-12-07T06:53:52;2.10;10.10
2611;DHT22;5612;51.134;17.058;2023-12-07T06:56:21;2.10;1.00
2611;DHT22;5612;51.134;17.058;2023-12-07T06:58:51;2.10;14.20
2611;DHT22;5612;51.134;17.058;2023-12-07T07:01:20;2.10;99.90
2611;DHT22;5612;51.134;17.058;2023-12-07T07:03:50;2.10;99.90
2611;DHT22;5612;51.134;17.058;2023-12-07T07:06:19;2.00;99.90
2611;DHT22;5612;51.134;17.058;2023-12-07T07:08:48;2.10;99.90
2611;DHT22;5612;51.134;17.058;2023-12-07T07:11:17;2.10;99.90
2611;DHT22;5612;51.134;17.058;2023-12-07T07:13:46;2.20;99.90
2611;DHT22;5612;51.134;17.058;2023-12-07T07:16:16;2.10;99.90
2611;DHT22;5612;51.134;17.058;2023-12-07T07:18:46;2.00;1.00
2611;DHT22;5612;51.134;17.058;2023-12-07T07:21:15;2.10;99.90
2611;DHT22;5612;51.134;17.058;2023-12-07T07:23:44;2.20;99.90
2611;DHT22;5612;51.134;17.058;2023-12-07T07:26:13;2.20;1.00
2611;DHT22;5612;51.134;17.058;2023-12-07T07:28:44;2.20;1.00
2611;DHT22;5612;51.134;17.058;2023-12-07T07:31:13;2.20;97.90
2611;DHT22;5612;51.134;17.058;2023-12-07T07:33:44;2.20;99.90
2611;DHT22;5612;51.134;17.058;2023-12-07T07:36:26;2.00;99.90
2611;DHT22;5612;51.134;17.058;2023-12-07T07:38:55;1.90;1.00
2611;DHT22;5612;51.134;17.058;2023-12-07T07:41:25;1.80;99.90
2611;DHT22;5612;51.134;17.058;2023-12-07T07:43:54;1.90;99.90
2611;DHT22;5612;51.134;17.058;2023-12-07T07:46:24;2.00;99.90
2611;DHT22;5612;51.134;17.058;2023-12-07T07:48:54;2.00;99.90
2611;DHT22;5612;51.134;17.058;2023-12-07T07:51:23;2.00;97.00
2611;DHT22;5612;51.134;17.058;2023-12-07T07:53:52;2.00;99.90
2611;DHT22;5612;51.134;17.058;2023-12-07T07:56:24;1.90;99.90
2611;DHT22;5612;51.134;17.058;2023-12-07T07:58:53;2.00;99.90
2611;DHT22;5612;51.134;17.058;2023-12-07T08:01:22;2.00;99.90
2611;DHT22;5612;51.134;17.058;2023-12-07T08:03:51;1.90;99.90
2611;DHT22;5612;51.134;17.058;2023-12-07T08:06:21;2.00;99.90
2611;DHT22;5612;51.134;17.058;2023-12-07T08:08:50;2.10;99.90
2611;DHT22;5612;51.134;17.058;2023-12-07T08:11:19;2.10;99.90
2611;DHT22;5612;51.134;17.058;2023-12-07T08:13:48;2.10;99.90
2611;DHT22;5612;51.134;17.058;2023-12-07T08:16:17;2.10;99.90
2611;DHT22;5612;51.134;17.058;2023-12-07T08:18:46;2.20;99.90
2611;DHT22;5612;51.134;17.058;2023-12-07T08:21:23;2.20;99.90
2611;DHT22;5612;51.134;17.058;2023-12-07T08:23:58;2.20;99.90
2611;DHT22;5612;51.134;17.058;2023-12-07T08:26:27;2.00;99.90
2611;DHT22;5612;51.134;17.058;2023-12-07T08:28:57;1.90;1.00
2611;DHT22;5612;51.134;17.058;2023-12-07T08:31:26;1.90;1.00
2611;DHT22;5612;51.134;17.058;2023-12-07T08:33:55;1.80;1.00
2611;DHT22;5612;51.134;17.058;2023-12-07T08:36:26;1.80;1.00
2611;DHT22;5612;51.134;17.058;2023-12-07T08:38:55;1.70;1.00
2611;DHT22;5612;51.134;17.058;2023-12-07T08:41:24;1.80;1.00
2611;DHT22;5612;51.134;17.058;2023-12-07T08:43:53;1.90;1.00
2611;DHT22;5612;51.134;17.058;2023-12-07T08:46:22;2.00;1.00
2611;DHT22;5612;51.134;17.058;2023-12-07T08:48:52;2.00;1.00
2611;DHT22;5612;51.134;17.058;2023-12-07T08:51:22;2.00;1.00
2611;DHT22;5612;51.134;17.058;2023-12-07T08:53:52;2.20;1.00
2611;DHT22;5612;51.134;17.058;2023-12-07T08:56:23;2.20;1.00
2611;DHT22;5612;51.134;17.058;2023-12-07T08:58:53;2.40;1.00
2611;DHT22;5612;51.134;17.058;2023-12-07T09:01:22;2.40;1.00
2611;DHT22;5612;51.134;17.058;2023-12-07T09:03:59;2.40;1.00
2611;DHT22;5612;51.134;17.058;2023-12-07T09:06:28;2.40;1.00
2611;DHT22;5612;51.134;17.058;2023-12-07T09:08:59;2.30;1.00
2611;DHT22;5612;51.134;17.058;2023-12-07T09:11:28;2.30;1.00
2611;DHT22;5612;51.134;17.058;2023-12-07T09:13:57;2.20;1.00
2611;DHT22;5612;51.134;17.058;2023-12-07T09:16:26;2.20;1.00
2611;DHT22;5612;51.134;17.058;2023-12-07T09:18:55;2.30;1.00
2611;DHT22;5612;51.134;17.058;2023-12-07T09:21:24;2.40;1.00
2611;DHT22;5612;51.134;17.058;2023-12-07T09:23:53;2.50;1.00
2611;DHT22;5612;51.134;17.058;2023-12-07T09:26:24;2.30;1.00
2611;DHT22;5612;51.134;17.058;2023-12-07T09:28:53;2.40;1.00
2611;DHT22;5612;51.134;17.058;2023-12-07T09:31:22;2.50;1.00
2611;DHT22;5612;51.134;17.058;2023-12-07T09:33:51;2.70;1.00
2611;DHT22;5612;51.134;17.058;2023-12-07T09:36:24;2.80;99.90
2611;DHT22;5612;51.134;17.058;2023-12-07T09:38:55;2.80;99.90
2611;DHT22;5612;51.134;17.058;2023-12-07T09:41:26;2.60;99.90
2611;DHT22;5612;51.134;17.058;2023-12-07T09:43:56;2.50;99.90
2611;DHT22;5612;51.134;17.058;2023-12-07T09:46:25;2.30;1.00
2611;DHT22;5612;51.134;17.058;2023-12-07T09:48:54;2.50;1.00
2611;DHT22;5612;51.134;17.058;2023-12-07T09:51:24;2.60;1.00
2611;DHT22;5612;51.134;17.058;2023-12-07T09:53:55;2.60;99.90
2611;DHT22;5612;51.134;17.058;2023-12-07T09:56:26;2.50;99.90
2611;DHT22;5612;51.134;17.058;2023-12-07T09:58:55;2.60;99.90
2611;DHT22;5612;51.134;17.058;2023-12-07T10:01:28;2.70;99.90
2611;DHT22;5612;51.134;17.058;2023-12-07T10:04:16;2.60;99.90
2611;DHT22;5612;51.134;17.058;2023-12-07T10:06:46;2.60;99.90
2611;DHT22;5612;51.134;17.058;2023-12-07T10:09:16;2.60;99.90
2611;DHT22;5612;51.134;17.058;2023-12-07T10:12:04;2.60;99.90
2611;DHT22;5612;51.134;17.058;2023-12-07T10:14:33;2.60;99.90
2611;DHT22;5612;51.134;17.058;2023-12-07T10:17:02;2.80;99.90
2611;DHT22;5612;51.134;17.058;2023-12-07T10:19:31;2.90;99.90
2611;DHT22;5612;51.134;17.058;2023-12-07T10:22:12;3.00;92.10
2611;DHT22;5612;51.134;17.058;2023-12-07T10:24:44;3.00;1.00
2611;DHT22;5612;51.134;17.058;2023-12-07T10:27:15;2.90;1.00
2611;DHT22;5612;51.134;17.058;2023-12-07T10:29:45;2.90;99.90
2611;DHT22;5612;51.134;17.058;2023-12-07T10:32:14;2.70;99.90
2611;DHT22;5612;51.134;17.058;2023-12-07T10:34:45;2.80;99.90
2611;DHT22;5612;51.134;17.058;2023-12-07T10:37:14;2.70;99.90
2611;DHT22;5612;51.134;17.058;2023-12-07T10:39:43;2.60;99.90
2611;DHT22;5612;51.134;17.058;2023-12-07T10:42:16;2.60;99.90
2611;DHT22;5612;51.134;17.058;2023-12-07T10:44:46;2.50;99.90
2611;DHT22;5612;51.134;17.058;2023-12-07T10:47:20;2.60;1.00
2611;DHT22;5612;51.134;17.058;2023-12-07T10:49:54;2.70;99.90
2611;DHT22;5612;51.134;17.058;2023-12-07T10:52:24;2.80;99.90
2611;DHT22;5612;51.134;17.058;2023-12-07T10:55:02;2.90;99.90
2611;DHT22;5612;51.134;17.058;2023-12-07T10:57:34;2.60;99.90
2611;DHT22;5612;51.134;17.058;2023-12-07T11:00:06;2.60;1.00
2611;DHT22;5612;51.134;17.058;2023-12-07T11:02:36;2.60;1.00
2611;DHT22;5612;51.134;17.058;2023-12-07T11:05:07;2.90;1.00
2611;DHT22;5612;51.134;17.058;2023-12-07T11:07:45;2.70;99.90
2611;DHT22;5612;51.134;17.058;2023-12-07T11:10:21;2.70;99.90
2611;DHT22;5612;51.134;17.058;2023-12-07T11:13:00;2.70;1.00
2611;DHT22;5612;51.134;17.058;2023-12-07T11:15:36;2.80;1.00
2611;DHT22;5612;51.134;17.058;2023-12-07T11:18:06;2.90;99.90
2611;DHT22;5612;51.134;17.058;2023-12-07T11:20:40;3.00;99.90
2611;DHT22;5612;51.134;17.058;2023-12-07T11:23:11;3.10;99.90
2611;DHT22;5612;51.134;17.058;2023-12-07T11:25:43;3.10;59.30
2611;DHT22;5612;51.134;17.058;2023-12-07T11:28:14;2.90;99.90
2611;DHT22;5612;51.134;17.058;2023-12-07T11:30:45;2.80;99.90
2611;DHT22;5612;51.134;17.058;2023-12-07T11:33:15;2.80;99.90
2611;DHT22;5612;51.134;17.058;2023-12-07T11:36:02;2.70;99.90
2611;DHT22;5612;51.134;17.058;2023-12-07T11:38:32;2.80;1.00
2611;DHT22;5612;51.134;17.058;2023-12-07T11:41:01;2.70;1.00
2611;DHT22;5612;51.134;17.058;2023-12-07T11:43:40;2.70;1.00
2611;DHT22;5612;51.134;17.058;2023-12-07T11:46:14;2.50;1.00
2611;DHT22;5612;51.134;17.058;2023-12-07T11:48:47;2.60;1.00
2611;DHT22;5612;51.134;17.058;2023-12-07T11:51:17;2.80;1.00
2611;DHT22;5612;51.134;17.058;2023-12-07T11:53:46;2.90;1.00
2611;DHT22;5612;51.134;17.058;2023-12-07T11:56:17;3.00;99.90
2611;DHT22;5612;51.134;17.058;2023-12-07T11:58:51;3.20;99.90
2611;DHT22;5612;51.134;17.058;2023-12-07T12:01:20;3.10;21.80
2611;DHT22;5612;51.134;17.058;2023-12-07T12:03:49;3.10;24.80
2611;DHT22;5612;51.134;17.058;2023-12-07T12:06:19;3.00;99.00
2611;DHT22;5612;51.134;17.058;2023-12-07T12:08:48;3.00;99.90
2611;DHT22;5612;51.134;17.058;2023-12-07T12:11:17;3.00;99.90
2611;DHT22;5612;51.134;17.058;2023-12-07T12:13:47;3.00;99.90
2611;DHT22;5612;51.134;17.058;2023-12-07T12:16:19;2.80;99.90
2611;DHT22;5612;51.134;17.058;2023-12-07T12:18:48;2.70;1.00
2611;DHT22;5612;51.134;17.058;2023-12-07T12:21:18;2.70;1.00
2611;DHT22;5612;51.134;17.058;2023-12-07T12:23:50;2.70;1.00
2611;DHT22;5612;51.134;17.058;2023-12-07T12:26:19;2.70;1.00
2611;DHT22;5612;51.134;17.058;2023-12-07T12:28:49;2.70;1.00
2611;DHT22;5612;51.134;17.058;2023-12-07T12:31:21;2.70;1.00
2611;DHT22;5612;51.134;17.058;2023-12-07T12:33:51;2.80;1.00
2611;DHT22;5612;51.134;17.058;2023-12-07T12:36:20;2.90;1.00
2611;DHT22;5612;51.134;17.058;2023-12-07T12:38:50;3.00;1.00
2611;DHT22;5612;51.134;17.058;2023-12-07T12:41:20;3.10;99.90
2611;DHT22;5612;51.134;17.058;2023-12-07T12:43:49;3.20;99.90
2611;DHT22;5612;51.134;17.058;2023-12-07T12:46:21;3.20;99.90
2611;DHT22;5612;51.134;17.058;2023-12-07T12:48:54;3.30;99.90
2611;DHT22;5612;51.134;17.058;2023-12-07T12:51:25;3.20;99.90
2611;DHT22;5612;51.134;17.058;2023-12-07T12:53:55;3.30;99.90
2611;DHT22;5612;51.134;17.058;2023-12-07T12:56:27;3.30;1.00
2611;DHT22;5612;51.134;17.058;2023-12-07T12:58:56;3.40;1.00
2611;DHT22;5612;51.134;17.058;2023-12-07T13:01:33;3.40;99.90
2611;DHT22;5612;51.134;17.058;2023-12-07T13:04:02;3.40;1.00
2611;DHT22;5612;51.134;17.058;2023-12-07T13:06:31;3.20;48.80
2611;DHT22;5612;51.134;17.058;2023-12-07T13:09:00;3.30;99.90
2611;DHT22;5612;51.134;17.058;2023-12-07T13:11:30;3.40;1.00
2611;DHT22;5612;51.134;17.058;2023-12-07T13:13:59;3.40;99.90
2611;DHT22;5612;51.134;17.058;2023-12-07T13:16:35;3.20;1.00
2611;DHT22;5612;51.134;17.058;2023-12-07T13:19:05;3.10;99.90
2611;DHT22;5612;51.134;17.058;2023-12-07T13:21:34;3.10;99.90
2611;DHT22;5612;51.134;17.058;2023-12-07T13:24:04;3.10;99.90
2611;DHT22;5612;51.134;17.058;2023-12-07T13:26:35;3.20;99.90
2611;DHT22;5612;51.134;17.058;2023-12-07T13:29:04;3.30;1.00
2611;DHT22;5612;51.134;17.058;2023-12-07T13:31:42;3.30;1.00
2611;DHT22;5612;51.134;17.058;2023-12-07T13:34:11;3.40;99.90
2611;DHT22;5612;51.134;17.058;2023-12-07T13:36:49;3.60;1.00
2611;DHT22;5612;51.134;17.058;2023-12-07T13:39:18;3.60;99.90
2611;DHT22;5612;51.134;17.058;2023-12-07T13:41:58;3.60;99.90
2611;DHT22;5612;51.134;17.058;2023-12-07T13:44:31;3.70;99.90
2611;DHT22;5612;51.134;17.058;2023-12-07T13:47:02;3.60;99.90
2611;DHT22;5612;51.134;17.058;2023-12-07T13:49:31;3.60;99.90
2611;DHT22;5612;51.134;17.058;2023-12-07T13:52:01;3.70;99.90
2611;DHT22;5612;51.134;17.058;2023-12-07T13:54:35;3.70;1.00
2611;DHT22;5612;51.134;17.058;2023-12-07T13:57:07;3.50;99.90
2611;DHT22;5612;51.134;17.058;2023-12-07T13:59:38;3.30;1.00
2611;DHT22;5612;51.134;17.058;2023-12-07T14:02:08;3.00;1.00
2611;DHT22;5612;51.134;17.058;2023-12-07T14:04:38;3.00;99.90
2611;DHT22;5612;51.134;17.058;2023-12-07T14:07:09;3.10;99.90
2611;DHT22;5612;51.134;17.058;2023-12-07T14:09:40;3.20;1.00
2611;DHT22;5612;51.134;17.058;2023-12-07T14:12:24;3.30;99.90
2611;DHT22;5612;51.134;17.058;2023-12-07T14:14:54;3.40;1.00
2611;DHT22;5612;51.134;17.058;2023-12-07T14:17:25;3.40;1.00
2611;DHT22;5612;51.134;17.058;2023-12-07T14:20:04;3.30;1.00
2611;DHT22;5612;51.134;17.058;2023-12-07T14:22:54;3.20;99.90
2611;DHT22;5612;51.134;17.058;2023-12-07T14:25:24;3.20;99.90
2611;DHT22;5612;51.134;17.058;2023-12-07T14:27:53;3.10;99.90
2611;DHT22;5612;51.134;17.058;2023-12-07T14:30:22;3.10;99.90
2611;DHT22;5612;51.134;17.058;2023-12-07T14:32:52;3.10;1.00
2611;DHT22;5612;51.134;17.058;2023-12-07T14:35:24;3.20;99.90
2611;DHT22;5612;51.134;17.058;2023-12-07T14:37:54;3.30;99.90
2611;DHT22;5612;51.134;17.058;2023-12-07T14:40:27;3.30;1.00
2611;DHT22;5612;51.134;17.058;2023-12-07T14:43:00;3.30;1.00
2611;DHT22;5612;51.134;17.058;2023-12-07T14:45:33;3.30;1.00
2611;DHT22;5612;51.134;17.058;2023-12-07T14:48:09;3.30;1.00
2611;DHT22;5612;51.134;17.058;2023-12-07T14:50:41;3.30;1.00
2611;DHT22;5612;51.134;17.058;2023-12-07T14:53:14;3.30;1.00
2611;DHT22;5612;51.134;17.058;2023-12-07T14:55:46;3.40;1.00
2611;DHT22;5612;51.134;17.058;2023-12-07T14:58:19;3.40;99.90
2611;DHT22;5612;51.134;17.058;2023-12-07T15:00:52;3.30;1.00
2611;DHT22;5612;51.134;17.058;2023-12-07T15:03:28;3.30;1.00
2611;DHT22;5612;51.134;17.058;2023-12-07T15:05:58;3.20;1.00
2611;DHT22;5612;51.134;17.058;2023-12-07T15:08:33;3.30;1.00
2611;DHT22;5612;51.134;17.058;2023-12-07T15:11:04;3.30;1.00
2611;DHT22;5612;51.134;17.058;2023-12-07T15:13:35;3.30;99.90
2611;DHT22;5612;51.134;17.058;2023-12-07T15:16:05;3.30;99.90
2611;DHT22;5612;51.134;17.058;2023-12-07T15:18:37;3.30;99.90
2611;DHT22;5612;51.134;17.058;2023-12-07T15:21:09;3.30;99.90
2611;DHT22;5612;51.134;17.058;2023-12-07T15:23:38;3.30;1.00
2611;DHT22;5612;51.134;17.058;2023-12-07T15:26:08;3.30;1.00
2611;DHT22;5612;51.134;17.058;2023-12-07T15:28:37;3.30;99.90
2611;DHT22;5612;51.134;17.058;2023-12-07T15:31:07;3.30;99.90
2611;DHT22;5612;51.134;17.058;2023-12-07T15:33:38;3.30;99.90
2611;DHT22;5612;51.134;17.058;2023-12-07T15:36:07;3.30;1.00
2611;DHT22;5612;51.134;17.058;2023-12-07T15:38:39;3.30;99.90
2611;DHT22;5612;51.134;17.058;2023-12-07T15:41:10;3.40;99.90
2611;DHT22;5612;51.134;17.058;2023-12-07T15:43:40;3.30;99.90
2611;DHT22;5612;51.134;17.058;2023-12-07T15:46:09;3.30;99.90
2611;DHT22;5612;51.134;17.058;2023-12-07T15:48:39;3.30;1.00
2611;DHT22;5612;51.134;17.058;2023-12-07T15:51:09;3.30;1.00
2611;DHT22;5612;51.134;17.058;2023-12-07T15:53:39;3.30;1.00
2611;DHT22;5612;51.134;17.058;2023-12-07T15:56:09;3.30;99.90
2611;DHT22;5612;51.134;17.058;2023-12-07T15:58:40;3.30;1.00
2611;DHT22;5612;51.134;17.058;2023-12-07T16:01:09;3.30;1.00
2611;DHT22;5612;51.134;17.058;2023-12-07T16:03:40;3.30;1.00
2611;DHT22;5612;51.134;17.058;2023-12-07T16:06:09;3.30;99.90
2611;DHT22;5612;51.134;17.058;2023-12-07T16:08:41;3.30;1.00
2611;DHT22;5612;51.134;17.058;2023-12-07T16:11:10;3.30;1.00
2611;DHT22;5612;51.134;17.058;2023-12-07T16:13:40;3.30;99.90
2611;DHT22;5612;51.134;17.058;2023-12-07T16:16:10;3.30;1.00
2611;DHT22;5612;51.134;17.058;2023-12-07T16:18:43;3.20;1.00
2611;DHT22;5612;51.134;17.058;2023-12-07T16:21:12;3.20;1.00
2611;DHT22;5612;51.134;17.058;2023-12-07T16:23:45;3.20;1.00
2611;DHT22;5612;51.134;17.058;2023-12-07T16:26:14;3.10;1.00
2611;DHT22;5612;51.134;17.058;2023-12-07T16:28:42;3.10;1.00